sensor_id;sensor_type;location;lat;lon;timestamp;temperature;humidity
19389;DHT22;9830;41.876;23.474;2022-09-29T00:01:56;8.80;99.90
19389;DHT22;9830;41.876;23.474;2022-09-29T00:04:21;8.70;99.90
19389;DHT22;9830;41.876;23.474;2022-09-29T00:06:47;8.60;99.90
19389;DHT22;9830;41.876;23.474;2022-09-29T00:09:13;8.60;99.90
19389;DHT22;9830;41.876;23.474;2022-09-29T00:11:38;8.50;99.90
19389;DHT22;9830;41.876;23.474;2022-09-29T00:14:04;8.50;99.90
19389;DHT22;9830;41.876;23.474;2022-09-29T00:16:30;8.60;99.90
19389;DHT22;9830;41.876;23.474;2022-09-29T00:18:56;8.60;99.90
19389;DHT22;9830;41.876;23.474;2022-09-29T00:21:22;8.60;99.90
19389;DHT22;9830;41.876;23.474;2022-09-29T00:23:49;8.60;99.90
19389;DHT22;9830;41.876;23.474;2022-09-29T00:26:17;8.50;99.90
19389;DHT22;9830;41.876;23.474;2022-09-29T00:28:49;8.50;99.90
19389;DHT22;9830;41.876;23.474;2022-09-29T00:31:17;8.40;99.90
19389;DHT22;9830;41.876;23.474;2022-09-29T00:33:43;8.40;99.90
19389;DHT22;9830;41.876;23.474;2022-09-29T00:36:14;8.40;99.90
19389;DHT22;9830;41.876;23.474;2022-09-29T00:38:42;8.40;99.90
19389;DHT22;9830;41.876;23.474;2022-09-29T00:41:19;8.40;99.90
19389;DHT22;9830;41.876;23.474;2022-09-29T00:48:57;8.20;99.90
19389;DHT22;9830;41.876;23.474;2022-09-29T00:51:24;8.10;99.90
19389;DHT22;9830;41.876;23.474;2022-09-29T00:53:50;8.00;99.90
19389;DHT22;9830;41.876;23.474;2022-09-29T00:56:17;7.90;99.90
19389;DHT22;9830;41.876;23.474;2022-09-29T00:58:50;8.00;99.90
19389;DHT22;9830;41.876;23.474;2022-09-29T01:01:23;7.80;99.90
19389;DHT22;9830;41.876;23.474;2022-09-29T01:03:52;7.80;99.90
19389;DHT22;9830;41.876;23.474;2022-09-29T01:06:36;7.80;99.90
19389;DHT22;9830;41.876;23.474;2022-09-29T01:09:13;7.80;99.90
19389;DHT22;9830;41.876;23.474;2022-09-29T01:11:40;7.70;99.90
19389;DHT22;9830;41.876;23.474;2022-09-29T01:14:08;7.70;99.90
19389;DHT22;9830;41.876;23.474;2022-09-29T01:16:34;7.80;99.90
19389;DHT22;9830;41.876;23.474;2022-09-29T01:19:06;7.80;99.90
19389;DHT22;9830;41.876;23.474;2022-09-29T01:32:11;7.50;99.90
19389;DHT22;9830;41.876;23.474;2022-09-29T01:34:43;7.50;99.90
19389;DHT22;9830;41.876;23.474;2022-09-29T01:42:57;7.50;99.90
19389;DHT22;9830;41.876;23.474;2022-09-29T01:46:05;7.60;99.90
19389;DHT22;9830;41.876;23.474;2022-09-29T01:48:38;7.60;99.90
19389;DHT22;9830;41.876;23.474;2022-09-29T01:51:09;7.70;99.90
19389;DHT22;9830;41.876;23.474;2022-09-29T01:53:47;7.70;99.90
19389;DHT22;9830;41.876;23.474;2022-09-29T01:56:20;7.60;99.90
19389;DHT22;9830;41.876;23.474;2022-09-29T01:58:57;7.50;99.90
19389;DHT22;9830;41.876;23.474;2022-09-29T02:01:29;7.30;99.90
19389;DHT22;9830;41.876;23.474;2022-09-29T02:04:03;7.30;99.90
19389;DHT22;9830;41.876;23.474;2022-09-29T02:06:32;7.30;99.90
19389;DHT22;9830;41.876;23.474;2022-09-29T02:09:03;7.30;99.90
19389;DHT22;9830;41.876;23.474;2022-09-29T02:11:36;7.30;99.90
19389;DHT22;9830;41.876;23.474;2022-09-29T02:16:47;7.30;99.90
19389;DHT22;9830;41.876;23.474;2022-09-29T02:19:21;7.30;99.90
19389;DHT22;9830;41.876;23.474;2022-09-29T02:21:48;7.30;99.90
19389;DHT22;9830;41.876;23.474;2022-09-29T02:24:19;7.20;99.90
19389;DHT22;9830;41.876;23.474;2022-09-29T02:26:45;7.20;99.90
19389;DHT22;9830;41.876;23.474;2022-09-29T02:29:12;7.30;99.90
19389;DHT22;9830;41.876;23.474;2022-09-29T02:31:38;7.30;99.90
19389;DHT22;9830;41.876;23.474;2022-09-29T02:34:07;7.30;99.90
19389;DHT22;9830;41.876;23.474;2022-09-29T02:41:46;7.40;99.90
19389;DHT22;9830;41.876;23.474;2022-09-29T02:52:34;7.30;99.90
19389;DHT22;9830;41.876;23.474;2022-09-29T02:55:19;7.40;99.90
19389;DHT22;9830;41.876;23.474;2022-09-29T03:00:17;7.60;99.90
19389;DHT22;9830;41.876;23.474;2022-09-29T03:02:43;7.50;99.90
19389;DHT22;9830;41.876;23.474;2022-09-29T03:05:18;7.40;99.90
19389;DHT22;9830;41.876;23.474;2022-09-29T03:07:44;7.30;99.90
19389;DHT22;9830;41.876;23.474;2022-09-29T03:10:11;7.40;99.90
19389;DHT22;9830;41.876;23.474;2022-09-29T03:12:37;7.30;99.90
19389;DHT22;9830;41.876;23.474;2022-09-29T03:15:04;7.40;99.90
19389;DHT22;9830;41.876;23.474;2022-09-29T03:17:30;7.50;99.90
19389;DHT22;9830;41.876;23.474;2022-09-29T03:19:56;7.40;99.90
19389;DHT22;9830;41.876;23.474;2022-09-29T03:22:22;7.30;99.90
19389;DHT22;9830;41.876;23.474;2022-09-29T03:24:48;7.40;99.90
19389;DHT22;9830;41.876;23.474;2022-09-29T03:27:14;7.40;99.90
19389;DHT22;9830;41.876;23.474;2022-09-29T03:29:39;7.40;99.90
19389;DHT22;9830;41.876;23.474;2022-09-29T03:32:06;7.50;99.90
19389;DHT22;9830;41.876;23.474;2022-09-29T03:34:32;7.40;99.90
19389;DHT22;9830;41.876;23.474;2022-09-29T03:36:58;7.40;99.90
19389;DHT22;9830;41.876;23.474;2022-09-29T03:39:24;7.40;99.90
19389;DHT22;9830;41.876;23.474;2022-09-29T03:41:49;7.40;99.90
19389;DHT22;9830;41.876;23.474;2022-09-29T03:44:16;7.40;99.90
19389;DHT22;9830;41.876;23.474;2022-09-29T03:46:42;7.50;99.90
19389;DHT22;9830;41.876;23.474;2022-09-29T03:49:11;7.40;99.90
19389;DHT22;9830;41.876;23.474;2022-09-29T03:51:37;7.30;99.90
19389;DHT22;9830;41.876;23.474;2022-09-29T03:54:03;7.30;99.90
19389;DHT22;9830;41.876;23.474;2022-09-29T03:56:30;7.30;99.90
19389;DHT22;9830;41.876;23.474;2022-09-29T03:58:55;7.30;99.90
19389;DHT22;9830;41.876;23.474;2022-09-29T04:01:21;7.30;99.90
19389;DHT22;9830;41.876;23.474;2022-09-29T04:03:47;7.30;99.90
19389;DHT22;9830;41.876;23.474;2022-09-29T04:06:13;7.40;99.90
19389;DHT22;9830;41.876;23.474;2022-09-29T04:08:39;7.60;99.90
19389;DHT22;9830;41.876;23.474;2022-09-29T04:11:05;7.60;99.90
19389;DHT22;9830;41.876;23.474;2022-09-29T04:13:30;7.70;99.90
19389;DHT22;9830;41.876;23.474;2022-09-29T04:16:01;7.80;99.90
19389;DHT22;9830;41.876;23.474;2022-09-29T04:18:27;7.90;99.90
19389;DHT22;9830;41.876;23.474;2022-09-29T04:20:54;7.80;99.90
19389;DHT22;9830;41.876;23.474;2022-09-29T04:23:27;8.00;99.90
19389;DHT22;9830;41.876;23.474;2022-09-29T04:25:55;8.00;99.90
19389;DHT22;9830;41.876;23.474;2022-09-29T04:28:21;8.00;99.90
19389;DHT22;9830;41.876;23.474;2022-09-29T04:30:47;8.10;99.90
19389;DHT22;9830;41.876;23.474;2022-09-29T04:33:13;8.00;99.90
19389;DHT22;9830;41.876;23.474;2022-09-29T04:35:38;8.00;99.90
19389;DHT22;9830;41.876;23.474;2022-09-29T04:38:04;8.00;99.90
19389;DHT22;9830;41.876;23.474;2022-09-29T04:40:33;8.00;99.90
19389;DHT22;9830;41.876;23.474;2022-09-29T04:42:58;8.00;99.90
19389;DHT22;9830;41.876;23.474;2022-09-29T04:45:24;8.00;99.90
19389;DHT22;9830;41.876;23.474;2022-09-29T04:47:49;8.00;99.90
19389;DHT22;9830;41.876;23.474;2022-09-29T04:50:15;7.90;99.90
19389;DHT22;9830;41.876;23.474;2022-09-29T04:52:42;7.80;99.90
19389;DHT22;9830;41.876;23.474;2022-09-29T04:55:08;7.90;99.90
19389;DHT22;9830;41.876;23.474;2022-09-29T04:57:36;7.90;99.90
19389;DHT22;9830;41.876;23.474;2022-09-29T05:00:04;8.00;99.90
19389;DHT22;9830;41.876;23.474;2022-09-29T05:02:30;8.00;99.90
19389;DHT22;9830;41.876;23.474;2022-09-29T05:04:56;8.10;99.90
19389;DHT22;9830;41.876;23.474;2022-09-29T05:07:21;8.20;99.90
19389;DHT22;9830;41.876;23.474;2022-09-29T05:09:47;8.20;99.90
19389;DHT22;9830;41.876;23.474;2022-09-29T05:12:13;8.40;99.90
19389;DHT22;9830;41.876;23.474;2022-09-29T05:14:39;8.60;99.90
19389;DHT22;9830;41.876;23.474;2022-09-29T05:17:04;8.70;99.90
19389;DHT22;9830;41.876;23.474;2022-09-29T05:19:30;8.90;99.90
19389;DHT22;9830;41.876;23.474;2022-09-29T05:21:57;8.90;99.90
19389;DHT22;9830;41.876;23.474;2022-09-29T05:24:23;9.10;99.90
19389;DHT22;9830;41.876;23.474;2022-09-29T05:26:49;9.20;99.90
19389;DHT22;9830;41.876;23.474;2022-09-29T05:29:15;9.40;99.90
19389;DHT22;9830;41.876;23.474;2022-09-29T05:31:41;9.30;99.90
19389;DHT22;9830;41.876;23.474;2022-09-29T05:34:07;9.40;99.90
19389;DHT22;9830;41.876;23.474;2022-09-29T05:36:32;9.50;99.90
19389;DHT22;9830;41.876;23.474;2022-09-29T05:38:58;9.60;99.90
19389;DHT22;9830;41.876;23.474;2022-09-29T05:41:24;9.70;99.90
19389;DHT22;9830;41.876;23.474;2022-09-29T05:43:51;10.00;99.90
19389;DHT22;9830;41.876;23.474;2022-09-29T05:46:20;10.00;99.90
19389;DHT22;9830;41.876;23.474;2022-09-29T05:48:47;10.10;99.90
19389;DHT22;9830;41.876;23.474;2022-09-29T05:51:17;10.20;99.90
19389;DHT22;9830;41.876;23.474;2022-09-29T05:53:44;10.20;99.90
19389;DHT22;9830;41.876;23.474;2022-09-29T05:56:15;10.10;99.90
19389;DHT22;9830;41.876;23.474;2022-09-29T05:58:41;10.20;99.90
19389;DHT22;9830;41.876;23.474;2022-09-29T06:01:09;10.40;99.90
19389;DHT22;9830;41.876;23.474;2022-09-29T06:03:36;10.80;99.90
19389;DHT22;9830;41.876;23.474;2022-09-29T06:06:10;11.30;99.90
19389;DHT22;9830;41.876;23.474;2022-09-29T06:08:36;11.60;99.90
19389;DHT22;9830;41.876;23.474;2022-09-29T06:11:14;11.80;99.90
19389;DHT22;9830;41.876;23.474;2022-09-29T06:13:48;12.10;99.90
19389;DHT22;9830;41.876;23.474;2022-09-29T06:16:15;12.00;99.90
19389;DHT22;9830;41.876;23.474;2022-09-29T06:18:41;12.40;99.90
19389;DHT22;9830;41.876;23.474;2022-09-29T06:21:09;12.50;99.90
19389;DHT22;9830;41.876;23.474;2022-09-29T06:23:36;12.50;99.90
19389;DHT22;9830;41.876;23.474;2022-09-29T06:26:04;12.30;99.90
19389;DHT22;9830;41.876;23.474;2022-09-29T06:28:31;12.30;99.90
19389;DHT22;9830;41.876;23.474;2022-09-29T06:31:05;12.40;99.90
19389;DHT22;9830;41.876;23.474;2022-09-29T06:33:33;12.60;99.90
19389;DHT22;9830;41.876;23.474;2022-09-29T06:36:00;12.50;99.90
19389;DHT22;9830;41.876;23.474;2022-09-29T06:38:46;12.90;99.90
19389;DHT22;9830;41.876;23.474;2022-09-29T06:41:12;12.40;99.90
19389;DHT22;9830;41.876;23.474;2022-09-29T06:43:38;12.10;99.90
19389;DHT22;9830;41.876;23.474;2022-09-29T06:46:04;12.70;99.90
19389;DHT22;9830;41.876;23.474;2022-09-29T06:48:29;13.00;99.90
19389;DHT22;9830;41.876;23.474;2022-09-29T06:50:55;13.00;99.90
19389;DHT22;9830;41.876;23.474;2022-09-29T06:53:22;13.20;99.90
19389;DHT22;9830;41.876;23.474;2022-09-29T06:55:52;13.50;99.90
19389;DHT22;9830;41.876;23.474;2022-09-29T06:58:18;13.10;99.90
19389;DHT22;9830;41.876;23.474;2022-09-29T07:00:44;13.60;99.90
19389;DHT22;9830;41.876;23.474;2022-09-29T07:03:10;14.10;99.90
19389;DHT22;9830;41.876;23.474;2022-09-29T07:05:35;14.30;99.90
19389;DHT22;9830;41.876;23.474;2022-09-29T07:08:01;14.10;99.90
19389;DHT22;9830;41.876;23.474;2022-09-29T07:10:28;13.70;99.90
19389;DHT22;9830;41.876;23.474;2022-09-29T07:12:54;13.60;99.90
19389;DHT22;9830;41.876;23.474;2022-09-29T07:15:20;13.50;99.90
19389;DHT22;9830;41.876;23.474;2022-09-29T07:17:49;13.30;99.90
19389;DHT22;9830;41.876;23.474;2022-09-29T07:20:15;13.20;99.90
19389;DHT22;9830;41.876;23.474;2022-09-29T07:22:41;13.50;99.90
19389;DHT22;9830;41.876;23.474;2022-09-29T07:25:07;13.10;99.90
19389;DHT22;9830;41.876;23.474;2022-09-29T07:27:32;13.10;99.90
19389;DHT22;9830;41.876;23.474;2022-09-29T07:29:59;13.20;99.90
19389;DHT22;9830;41.876;23.474;2022-09-29T07:32:25;13.40;99.90
19389;DHT22;9830;41.876;23.474;2022-09-29T07:34:51;14.70;99.90
19389;DHT22;9830;41.876;23.474;2022-09-29T07:37:16;16.70;99.90
19389;DHT22;9830;41.876;23.474;2022-09-29T07:39:42;18.20;97.60
19389;DHT22;9830;41.876;23.474;2022-09-29T07:42:08;19.60;92.20
19389;DHT22;9830;41.876;23.474;2022-09-29T07:44:33;20.00;87.30
19389;DHT22;9830;41.876;23.474;2022-09-29T07:46:59;20.10;87.40
19389;DHT22;9830;41.876;23.474;2022-09-29T07:49:25;21.30;76.50
19389;DHT22;9830;41.876;23.474;2022-09-29T07:51:50;22.30;71.00
19389;DHT22;9830;41.876;23.474;2022-09-29T07:54:16;22.70;67.30
19389;DHT22;9830;41.876;23.474;2022-09-29T07:56:42;22.90;65.90
19389;DHT22;9830;41.876;23.474;2022-09-29T07:59:09;24.00;59.30
19389;DHT22;9830;41.876;23.474;2022-09-29T08:01:35;23.60;58.20
19389;DHT22;9830;41.876;23.474;2022-09-29T08:04:01;23.00;59.80
19389;DHT22;9830;41.876;23.474;2022-09-29T08:06:27;22.50;61.00
19389;DHT22;9830;41.876;23.474;2022-09-29T08:08:53;23.70;58.30
19389;DHT22;9830;41.876;23.474;2022-09-29T08:11:20;23.80;58.30
19389;DHT22;9830;41.876;23.474;2022-09-29T08:13:47;24.30;57.90
19389;DHT22;9830;41.876;23.474;2022-09-29T08:16:13;24.90;56.00
19389;DHT22;9830;41.876;23.474;2022-09-29T08:18:40;24.80;55.90
19389;DHT22;9830;41.876;23.474;2022-09-29T08:21:07;24.30;56.50
19389;DHT22;9830;41.876;23.474;2022-09-29T08:23:37;24.90;54.80
19389;DHT22;9830;41.876;23.474;2022-09-29T08:26:05;27.40;48.20
19389;DHT22;9830;41.876;23.474;2022-09-29T08:28:34;26.40;49.60
19389;DHT22;9830;41.876;23.474;2022-09-29T08:31:04;26.00;50.20
19389;DHT22;9830;41.876;23.474;2022-09-29T08:33:31;26.80;47.50
19389;DHT22;9830;41.876;23.474;2022-09-29T08:35:58;26.20;48.30
19389;DHT22;9830;41.876;23.474;2022-09-29T08:38:25;26.50;50.10
19389;DHT22;9830;41.876;23.474;2022-09-29T08:40:52;26.90;49.10
19389;DHT22;9830;41.876;23.474;2022-09-29T08:43:39;26.60;49.90
19389;DHT22;9830;41.876;23.474;2022-09-29T08:46:55;26.60;48.50
19389;DHT22;9830;41.876;23.474;2022-09-29T08:49:05;25.50;50.30
19389;DHT22;9830;41.876;23.474;2022-09-29T08:52:11;24.50;54.00
19389;DHT22;9830;41.876;23.474;2022-09-29T08:54:40;24.30;54.50
19389;DHT22;9830;41.876;23.474;2022-09-29T08:57:16;24.10;56.30
19389;DHT22;9830;41.876;23.474;2022-09-29T08:59:51;26.20;52.00
19389;DHT22;9830;41.876;23.474;2022-09-29T09:10:32;28.00;47.40
19389;DHT22;9830;41.876;23.474;2022-09-29T09:15:47;28.30;47.40
19389;DHT22;9830;41.876;23.474;2022-09-29T09:21:07;29.00;45.80
19389;DHT22;9830;41.876;23.474;2022-09-29T09:23:55;29.50;46.60
19389;DHT22;9830;41.876;23.474;2022-09-29T09:26:35;29.30;45.30
19389;DHT22;9830;41.876;23.474;2022-09-29T09:29:07;30.20;42.60
19389;DHT22;9830;41.876;23.474;2022-09-29T09:31:41;31.80;40.70
19389;DHT22;9830;41.876;23.474;2022-09-29T09:34:27;31.60;40.40
19389;DHT22;9830;41.876;23.474;2022-09-29T09:39:48;32.80;38.30
19389;DHT22;9830;41.876;23.474;2022-09-29T09:42:36;31.40;40.80
19389;DHT22;9830;41.876;23.474;2022-09-29T09:45:14;31.50;39.00
19389;DHT22;9830;41.876;23.474;2022-09-29T09:47:49;31.30;38.70
19389;DHT22;9830;41.876;23.474;2022-09-29T09:50:18;30.90;39.60
19389;DHT22;9830;41.876;23.474;2022-09-29T09:52:50;30.80;40.40
19389;DHT22;9830;41.876;23.474;2022-09-29T09:55:21;30.20;39.60
19389;DHT22;9830;41.876;23.474;2022-09-29T10:00:44;28.90;43.30
19389;DHT22;9830;41.876;23.474;2022-09-29T10:03:12;29.00;45.60
19389;DHT22;9830;41.876;23.474;2022-09-29T10:05:42;28.60;43.80
19389;DHT22;9830;41.876;23.474;2022-09-29T10:08:31;28.60;41.40
19389;DHT22;9830;41.876;23.474;2022-09-29T10:11:12;28.20;42.60
19389;DHT22;9830;41.876;23.474;2022-09-29T10:13:40;27.30;44.20
19389;DHT22;9830;41.876;23.474;2022-09-29T10:16:09;26.70;43.90
19389;DHT22;9830;41.876;23.474;2022-09-29T10:21:35;25.60;46.10
19389;DHT22;9830;41.876;23.474;2022-09-29T10:24:02;25.30;47.00
19389;DHT22;9830;41.876;23.474;2022-09-29T10:26:42;26.40;46.60
19389;DHT22;9830;41.876;23.474;2022-09-29T10:29:40;27.60;45.20
19389;DHT22;9830;41.876;23.474;2022-09-29T10:34:49;27.70;43.70
19389;DHT22;9830;41.876;23.474;2022-09-29T10:37:26;28.20;43.50
19389;DHT22;9830;41.876;23.474;2022-09-29T10:42:38;28.90;41.00
19389;DHT22;9830;41.876;23.474;2022-09-29T10:45:22;28.80;42.00
19389;DHT22;9830;41.876;23.474;2022-09-29T10:50:28;27.30;43.60
19389;DHT22;9830;41.876;23.474;2022-09-29T10:52:57;26.20;45.20
19389;DHT22;9830;41.876;23.474;2022-09-29T10:57:51;26.00;50.40
19389;DHT22;9830;41.876;23.474;2022-09-29T11:00:35;26.40;47.70
19389;DHT22;9830;41.876;23.474;2022-09-29T11:03:17;26.70;46.50
19389;DHT22;9830;41.876;23.474;2022-09-29T11:06:09;26.60;47.00
19389;DHT22;9830;41.876;23.474;2022-09-29T11:11:31;26.40;48.50
19389;DHT22;9830;41.876;23.474;2022-09-29T11:13:58;26.30;49.20
19389;DHT22;9830;41.876;23.474;2022-09-29T11:19:08;26.30;48.00
19389;DHT22;9830;41.876;23.474;2022-09-29T11:27:05;26.00;47.50
19389;DHT22;9830;41.876;23.474;2022-09-29T11:35:16;23.90;52.50
19389;DHT22;9830;41.876;23.474;2022-09-29T11:40:38;23.20;59.10
19389;DHT22;9830;41.876;23.474;2022-09-29T11:46:26;23.00;60.70
19389;DHT22;9830;41.876;23.474;2022-09-29T11:57:54;23.10;62.40
19389;DHT22;9830;41.876;23.474;2022-09-29T12:14:29;22.20;65.90
19389;DHT22;9830;41.876;23.474;2022-09-29T12:17:01;22.30;64.50
19389;DHT22;9830;41.876;23.474;2022-09-29T12:19:32;22.30;63.60
19389;DHT22;9830;41.876;23.474;2022-09-29T12:22:00;22.20;62.10
19389;DHT22;9830;41.876;23.474;2022-09-29T12:24:40;22.10;62.80
19389;DHT22;9830;41.876;23.474;2022-09-29T12:27:15;22.10;64.70
19389;DHT22;9830;41.876;23.474;2022-09-29T12:29:47;22.10;63.30
19389;DHT22;9830;41.876;23.474;2022-09-29T12:33:04;21.90;64.20
19389;DHT22;9830;41.876;23.474;2022-09-29T12:38:18;22.20;60.40
19389;DHT22;9830;41.876;23.474;2022-09-29T12:41:10;22.40;62.20
19389;DHT22;9830;41.876;23.474;2022-09-29T12:43:49;22.70;59.50
19389;DHT22;9830;41.876;23.474;2022-09-29T12:56:53;22.50;58.80
19389;DHT22;9830;41.876;23.474;2022-09-29T12:59:39;22.60;57.60
19389;DHT22;9830;41.876;23.474;2022-09-29T13:26:40;22.40;60.20
19389;DHT22;9830;41.876;23.474;2022-09-29T13:29:14;22.30;60.50
19389;DHT22;9830;41.876;23.474;2022-09-29T13:31:44;22.40;62.30
19389;DHT22;9830;41.876;23.474;2022-09-29T13:34:26;22.40;60.90
19389;DHT22;9830;41.876;23.474;2022-09-29T13:36:59;22.30;62.30
19389;DHT22;9830;41.876;23.474;2022-09-29T13:39:29;22.30;62.10
19389;DHT22;9830;41.876;23.474;2022-09-29T13:41:55;22.20;61.90
19389;DHT22;9830;41.876;23.474;2022-09-29T13:44:26;22.30;62.00
19389;DHT22;9830;41.876;23.474;2022-09-29T13:46:54;22.00;63.00
19389;DHT22;9830;41.876;23.474;2022-09-29T13:51:58;21.90;66.50
19389;DHT22;9830;41.876;23.474;2022-09-29T13:54:41;21.80;67.70
19389;DHT22;9830;41.876;23.474;2022-09-29T13:57:18;21.70;68.90
19389;DHT22;9830;41.876;23.474;2022-09-29T13:59:46;21.70;65.80
19389;DHT22;9830;41.876;23.474;2022-09-29T14:02:33;21.80;66.40
19389;DHT22;9830;41.876;23.474;2022-09-29T14:04:59;21.80;67.30
19389;DHT22;9830;41.876;23.474;2022-09-29T14:07:40;21.80;67.10
19389;DHT22;9830;41.876;23.474;2022-09-29T14:15:51;21.90;66.60
19389;DHT22;9830;41.876;23.474;2022-09-29T14:18:23;21.90;66.60
19389;DHT22;9830;41.876;23.474;2022-09-29T14:21:02;21.90;67.60
19389;DHT22;9830;41.876;23.474;2022-09-29T14:23:49;21.80;67.50
19389;DHT22;9830;41.876;23.474;2022-09-29T14:26:42;21.80;68.30
19389;DHT22;9830;41.876;23.474;2022-09-29T14:29:22;21.80;67.40
19389;DHT22;9830;41.876;23.474;2022-09-29T14:31:52;21.60;71.60
19389;DHT22;9830;41.876;23.474;2022-09-29T14:34:20;21.40;72.60
19389;DHT22;9830;41.876;23.474;2022-09-29T14:36:50;21.10;76.30
19389;DHT22;9830;41.876;23.474;2022-09-29T14:39:17;21.10;76.90
19389;DHT22;9830;41.876;23.474;2022-09-29T14:41:45;21.00;79.30
19389;DHT22;9830;41.876;23.474;2022-09-29T14:44:16;20.90;80.30
19389;DHT22;9830;41.876;23.474;2022-09-29T14:46:54;20.80;80.90
19389;DHT22;9830;41.876;23.474;2022-09-29T14:53:23;20.80;79.50
19389;DHT22;9830;41.876;23.474;2022-09-29T14:56:28;20.80;81.20
19389;DHT22;9830;41.876;23.474;2022-09-29T15:04:30;20.90;82.50
19389;DHT22;9830;41.876;23.474;2022-09-29T15:07:03;20.80;83.00
19389;DHT22;9830;41.876;23.474;2022-09-29T15:09:35;20.70;82.40
19389;DHT22;9830;41.876;23.474;2022-09-29T15:12:02;20.60;79.90
19389;DHT22;9830;41.876;23.474;2022-09-29T15:14:30;20.50;87.10
19389;DHT22;9830;41.876;23.474;2022-09-29T15:28:03;19.70;92.90
19389;DHT22;9830;41.876;23.474;2022-09-29T15:30:30;19.50;95.10
19389;DHT22;9830;41.876;23.474;2022-09-29T15:33:29;19.30;97.00
19389;DHT22;9830;41.876;23.474;2022-09-29T15:36:00;19.20;98.70
19389;DHT22;9830;41.876;23.474;2022-09-29T15:38:30;19.10;98.30
19389;DHT22;9830;41.876;23.474;2022-09-29T15:44:07;18.90;99.50
19389;DHT22;9830;41.876;23.474;2022-09-29T15:51:41;18.60;99.20
19389;DHT22;9830;41.876;23.474;2022-09-29T15:54:13;18.50;99.00
19389;DHT22;9830;41.876;23.474;2022-09-29T15:56:39;18.50;99.90
19389;DHT22;9830;41.876;23.474;2022-09-29T15:59:43;18.50;99.90
19389;DHT22;9830;41.876;23.474;2022-09-29T16:05:00;18.30;98.90
19389;DHT22;9830;41.876;23.474;2022-09-29T16:07:33;18.30;99.50
19389;DHT22;9830;41.876;23.474;2022-09-29T16:10:13;18.20;99.90
19389;DHT22;9830;41.876;23.474;2022-09-29T16:12:46;18.10;99.90
19389;DHT22;9830;41.876;23.474;2022-09-29T16:15:28;17.90;99.90
19389;DHT22;9830;41.876;23.474;2022-09-29T16:17:56;17.80;99.90
19389;DHT22;9830;41.876;23.474;2022-09-29T16:20:27;17.70;99.90
19389;DHT22;9830;41.876;23.474;2022-09-29T16:22:53;17.60;99.90
19389;DHT22;9830;41.876;23.474;2022-09-29T16:25:28;17.60;99.90
19389;DHT22;9830;41.876;23.474;2022-09-29T16:27:58;17.50;99.90
19389;DHT22;9830;41.876;23.474;2022-09-29T16:30:35;17.40;99.90
19389;DHT22;9830;41.876;23.474;2022-09-29T16:33:19;17.30;99.90
19389;DHT22;9830;41.876;23.474;2022-09-29T16:40:57;17.00;99.90
19389;DHT22;9830;41.876;23.474;2022-09-29T16:43:28;16.90;99.90
19389;DHT22;9830;41.876;23.474;2022-09-29T16:46:00;16.90;99.90
19389;DHT22;9830;41.876;23.474;2022-09-29T16:48:28;16.80;99.90
19389;DHT22;9830;41.876;23.474;2022-09-29T16:50:59;16.80;99.90
19389;DHT22;9830;41.876;23.474;2022-09-29T16:53:29;16.80;99.90
19389;DHT22;9830;41.876;23.474;2022-09-29T16:56:06;16.80;99.90
19389;DHT22;9830;41.876;23.474;2022-09-29T16:58:32;16.80;99.90
19389;DHT22;9830;41.876;23.474;2022-09-29T17:00:58;16.70;99.90
19389;DHT22;9830;41.876;23.474;2022-09-29T17:03:23;16.70;99.90
19389;DHT22;9830;41.876;23.474;2022-09-29T17:05:49;16.60;99.90
19389;DHT22;9830;41.876;23.474;2022-09-29T17:08:25;16.60;99.90
19389;DHT22;9830;41.876;23.474;2022-09-29T17:10:53;16.60;99.90
19389;DHT22;9830;41.876;23.474;2022-09-29T17:13:20;16.50;99.90
19389;DHT22;9830;41.876;23.474;2022-09-29T17:15:47;16.60;99.90
19389;DHT22;9830;41.876;23.474;2022-09-29T17:18:17;16.60;99.90
19389;DHT22;9830;41.876;23.474;2022-09-29T17:20:42;16.60;99.90
19389;DHT22;9830;41.876;23.474;2022-09-29T17:23:08;16.50;99.90
19389;DHT22;9830;41.876;23.474;2022-09-29T17:25:37;16.40;99.90
19389;DHT22;9830;41.876;23.474;2022-09-29T17:28:15;16.30;99.90
19389;DHT22;9830;41.876;23.474;2022-09-29T17:30:45;16.20;99.90
19389;DHT22;9830;41.876;23.474;2022-09-29T17:33:12;16.10;99.90
19389;DHT22;9830;41.876;23.474;2022-09-29T17:35:44;16.10;99.90
19389;DHT22;9830;41.876;23.474;2022-09-29T17:38:15;16.10;99.90
19389;DHT22;9830;41.876;23.474;2022-09-29T17:43:16;16.10;99.90
19389;DHT22;9830;41.876;23.474;2022-09-29T17:45:43;16.20;99.90
19389;DHT22;9830;41.876;23.474;2022-09-29T17:48:09;16.20;99.90
19389;DHT22;9830;41.876;23.474;2022-09-29T17:50:43;16.20;99.90
19389;DHT22;9830;41.876;23.474;2022-09-29T17:53:10;16.10;99.90
19389;DHT22;9830;41.876;23.474;2022-09-29T17:55:39;16.10;99.90
19389;DHT22;9830;41.876;23.474;2022-09-29T17:58:06;16.10;99.90
19389;DHT22;9830;41.876;23.474;2022-09-29T18:00:36;16.00;99.90
19389;DHT22;9830;41.876;23.474;2022-09-29T18:03:06;16.00;99.90
19389;DHT22;9830;41.876;23.474;2022-09-29T18:05:35;16.10;99.90
19389;DHT22;9830;41.876;23.474;2022-09-29T18:08:02;16.20;99.90
19389;DHT22;9830;41.876;23.474;2022-09-29T18:10:50;16.20;99.90
19389;DHT22;9830;41.876;23.474;2022-09-29T18:13:17;15.90;99.90
19389;DHT22;9830;41.876;23.474;2022-09-29T18:15:43;16.00;99.90
19389;DHT22;9830;41.876;23.474;2022-09-29T18:18:10;16.00;99.90
19389;DHT22;9830;41.876;23.474;2022-09-29T18:20:41;15.90;99.90
19389;DHT22;9830;41.876;23.474;2022-09-29T18:23:08;15.80;99.90
19389;DHT22;9830;41.876;23.474;2022-09-29T18:25:34;15.80;99.90
19389;DHT22;9830;41.876;23.474;2022-09-29T18:28:00;15.80;99.90
19389;DHT22;9830;41.876;23.474;2022-09-29T18:30:29;15.70;99.90
19389;DHT22;9830;41.876;23.474;2022-09-29T18:32:57;15.70;99.90
19389;DHT22;9830;41.876;23.474;2022-09-29T18:35:28;15.70;99.90
19389;DHT22;9830;41.876;23.474;2022-09-29T18:37:55;15.60;99.90
19389;DHT22;9830;41.876;23.474;2022-09-29T18:40:22;15.50;99.90
19389;DHT22;9830;41.876;23.474;2022-09-29T18:42:50;15.50;99.90
19389;DHT22;9830;41.876;23.474;2022-09-29T18:45:18;15.50;99.90
19389;DHT22;9830;41.876;23.474;2022-09-29T18:47:48;15.50;99.90
19389;DHT22;9830;41.876;23.474;2022-09-29T18:50:20;15.40;99.90
19389;DHT22;9830;41.876;23.474;2022-09-29T18:52:47;15.40;99.90
19389;DHT22;9830;41.876;23.474;2022-09-29T18:55:14;15.30;99.90
19389;DHT22;9830;41.876;23.474;2022-09-29T18:57:42;15.30;99.90
19389;DHT22;9830;41.876;23.474;2022-09-29T19:00:10;15.30;99.90
19389;DHT22;9830;41.876;23.474;2022-09-29T19:02:37;15.30;99.90
19389;DHT22;9830;41.876;23.474;2022-09-29T19:05:03;15.40;99.90
19389;DHT22;9830;41.876;23.474;2022-09-29T19:07:30;15.30;99.90
19389;DHT22;9830;41.876;23.474;2022-09-29T19:09:56;15.20;99.90
19389;DHT22;9830;41.876;23.474;2022-09-29T19:12:21;15.00;99.90
19389;DHT22;9830;41.876;23.474;2022-09-29T19:14:52;15.00;99.90
19389;DHT22;9830;41.876;23.474;2022-09-29T19:17:19;15.10;99.90
19389;DHT22;9830;41.876;23.474;2022-09-29T19:19:47;15.10;99.90